Time;durP1;ratioP1;P1;durP2;ratioP2;P2;SDS_P1;SDS_P2;PMS_P1;PMS_P2;Temp;Humidity;BMP_temperature;BMP_pressure;BME280_temperature;BME280_humidity;BME280_pressure;Samples;Min_cycle;Max_cycle;Signal;HPM_P1;HPM_P2
2024/03/31 00:01:13;;;;;;;13.73;8.27;;;;;;;6.26;81.53;98685.13;5094138;28;20040;-65
2024/03/31 00:03:40;;;;;;;13.38;8.85;;;;;;;6.24;80.94;98686.41;5112404;28;20051;-66
2024/03/31 00:06:06;;;;;;;12.55;8.75;;;;;;;6.19;81.14;98688.91;5112488;28;20078;-64
2024/03/31 00:08:32;;;;;;;18.38;10.65;;;;;;;6.16;81.80;98690.16;5112550;28;20112;-65
2024/03/31 00:11:03;;;;;;;16.17;10.93;;;;;;;6.12;82.37;98691.66;5112365;28;20052;-65
2024/03/31 00:13:29;;;;;;;15.50;11.40;;;;;;;6.09;82.64;98687.63;5112505;28;20141;-65
2024/03/31 00:15:55;;;;;;;17.15;10.73;;;;;;;6.06;82.96;98700.41;5093655;28;20054;-63
2024/03/31 00:18:21;;;;;;;15.52;10.27;;;;;;;6.04;83.08;98695.38;5111404;28;20119;-65
2024/03/31 00:20:53;;;;;;;17.75;10.93;;;;;;;6.02;82.99;98702.69;5112357;28;20044;-63
2024/03/31 00:23:19;;;;;;;16.85;10.55;;;;;;;5.96;83.85;98693.06;5112463;28;20039;-63
2024/03/31 00:25:44;;;;;;;13.40;9.00;;;;;;;5.90;83.64;98692.09;5112181;28;20050;-65
2024/03/31 00:28:10;;;;;;;12.48;8.85;;;;;;;5.88;84.58;98701.25;5111811;28;20051;-64
2024/03/31 00:30:36;;;;;;;15.15;8.40;;;;;;;5.84;84.31;98700.91;5112316;28;20447;-64
2024/03/31 00:33:01;;;;;;;11.93;7.90;;;;;;;5.81;84.92;98698.72;5112252;28;20035;-64
2024/03/31 00:35:27;;;;;;;12.13;8.00;;;;;;;5.81;84.72;98697.91;5077074;28;20082;-63
2024/03/31 00:37:53;;;;;;;9.30;7.18;;;;;;;5.75;84.90;98699.59;5094041;28;20043;-64
2024/03/31 00:40:19;;;;;;;12.43;6.25;;;;;;;5.72;85.67;98700.06;5093682;28;20047;-64
2024/03/31 00:42:45;;;;;;;7.07;5.78;;;;;;;5.76;86.83;98705.66;5077221;28;20449;-64
2024/03/31 00:45:10;;;;;;;6.90;4.88;;;;;;;5.78;86.00;98701.00;5111747;28;20044;-64
2024/03/31 00:47:36;;;;;;;8.93;5.80;;;;;;;5.76;85.92;98708.28;5111699;28;20534;-65
2024/03/31 00:50:02;;;;;;;7.22;5.32;;;;;;;5.79;86.64;98708.63;5092355;28;20468;-65
2024/03/31 00:52:30;;;;;;;9.60;5.63;;;;;;;5.83;86.37;98716.91;5093965;28;20123;-64
2024/03/31 00:54:56;;;;;;;7.15;5.40;;;;;;;5.81;86.58;98719.75;5111822;28;20151;-64
2024/03/31 00:57:22;;;;;;;6.32;4.93;;;;;;;5.82;86.95;98723.97;5093758;28;20036;-65
2024/03/31 00:59:48;;;;;;;7.45;5.53;;;;;;;5.82;86.79;98726.59;5093591;28;20104;-63
2024/03/31 01:02:14;;;;;;;9.07;5.43;;;;;;;5.83;86.61;98736.13;5059942;28;20439;-66
2024/03/31 01:04:40;;;;;;;10.75;5.43;;;;;;;5.82;87.76;98731.06;5093106;28;20040;-65
2024/03/31 01:07:05;;;;;;;8.25;5.75;;;;;;;5.82;87.35;98736.31;5093238;28;20500;-65
2024/03/31 01:09:31;;;;;;;8.38;6.03;;;;;;;5.80;87.53;98746.28;5093062;28;20051;-64
2024/03/31 01:11:57;;;;;;;9.13;5.53;;;;;;;5.78;87.33;98745.69;5111996;28;20051;-64
2024/03/31 01:14:24;;;;;;;7.95;6.13;;;;;;;5.75;88.18;98752.19;5093205;28;20032;-65
2024/03/31 01:16:49;;;;;;;9.75;5.88;;;;;;;5.73;87.40;98756.06;5093520;28;20457;-64
2024/03/31 01:19:15;;;;;;;8.82;6.10;;;;;;;5.73;87.96;98761.34;5093575;28;20043;-64
2024/03/31 01:21:41;;;;;;;7.53;5.45;;;;;;;5.73;88.04;98761.34;5110399;28;20047;-65
2024/03/31 01:24:07;;;;;;;9.35;6.07;;;;;;;5.70;87.90;98766.00;5093251;28;20131;-64
2024/03/31 01:26:35;;;;;;;9.95;5.78;;;;;;;5.71;88.51;98772.09;5076685;28;20043;-63
2024/03/31 01:29:01;;;;;;;7.85;6.13;;;;;;;5.68;88.45;98775.94;5095421;28;20146;-64
2024/03/31 01:31:27;;;;;;;8.38;5.70;;;;;;;5.66;89.12;98774.56;5115758;28;20127;-65
2024/03/31 01:33:53;;;;;;;9.02;6.13;;;;;;;5.62;88.58;98783.94;5079015;28;20035;-63
2024/03/31 01:36:19;;;;;;;7.45;5.05;;;;;;;5.60;88.82;98786.75;5080402;28;20040;-64
2024/03/31 01:38:44;;;;;;;8.25;5.50;;;;;;;5.55;88.83;98785.81;5115362;28;20124;-64
2024/03/31 01:41:10;;;;;;;7.20;5.00;;;;;;;5.48;89.35;98788.50;5097214;28;20408;-65
2024/03/31 01:43:37;;;;;;;6.68;5.00;;;;;;;5.42;90.15;98782.31;5079305;28;20047;-63
2024/03/31 01:46:03;;;;;;;8.68;5.05;;;;;;;5.44;90.49;98787.34;5079681;28;20059;-64
2024/03/31 01:48:28;;;;;;;7.82;5.47;;;;;;;5.38;90.31;98785.56;5114970;28;20524;-64
2024/03/31 01:50:54;;;;;;;6.72;5.05;;;;;;;5.36;90.92;98795.53;5096860;28;20054;-65
2024/03/31 01:53:20;;;;;;;7.30;5.22;;;;;;;5.36;91.14;98806.03;5114897;28;20036;-65
2024/03/31 01:55:45;;;;;;;8.05;5.22;;;;;;;5.36;91.08;98811.28;5114919;28;20454;-63
2024/03/31 01:58:11;;;;;;;5.65;4.78;;;;;;;5.25;91.48;98812.81;5096264;28;20515;-63
2024/03/31 02:00:37;;;;;;;6.95;5.25;;;;;;;5.20;91.90;98820.53;5096865;28;20035;-65
2024/03/31 02:03:03;;;;;;;9.18;5.47;;;;;;;5.18;92.24;98812.88;5096560;28;20621;-65
2024/03/31 02:05:29;;;;;;;7.78;5.63;;;;;;;5.14;92.61;98818.75;5079282;28;20424;-64
2024/03/31 02:07:54;;;;;;;9.25;5.70;;;;;;;5.08;92.33;98825.69;5096269;28;20039;-65
2024/03/31 02:10:20;;;;;;;9.23;6.05;;;;;;;5.08;92.43;98828.31;5079411;28;20124;-64
2024/03/31 02:12:46;;;;;;;8.73;6.13;;;;;;;5.06;92.79;98819.03;5114320;28;20042;-64
2024/03/31 02:15:13;;;;;;;12.02;6.93;;;;;;;5.00;93.60;98825.97;5079962;28;20040;-63
2024/03/31 02:17:39;;;;;;;6.90;5.63;;;;;;;4.99;93.64;98834.84;5079465;28;20039;-64
2024/03/31 02:20:10;;;;;;;8.57;6.25;;;;;;;4.98;93.42;98841.13;5096348;28;20460;-65
2024/03/31 02:22:36;;;;;;;7.93;5.60;;;;;;;4.94;93.87;98842.56;5079801;28;20039;-65
2024/03/31 02:25:04;;;;;;;10.10;6.20;;;;;;;4.92;93.65;98848.03;5114363;28;20050;-64
2024/03/31 02:27:32;;;;;;;11.63;6.55;;;;;;;4.92;93.92;98853.28;5096618;28;20044;-65
2024/03/31 02:29:58;;;;;;;8.80;6.00;;;;;;;4.90;94.14;98854.53;5114206;28;20085;-65
2024/03/31 02:32:24;;;;;;;9.80;6.18;;;;;;;4.86;94.25;98853.34;5078989;28;20416;-65
2024/03/31 02:34:50;;;;;;;9.25;6.70;;;;;;;4.82;94.35;98857.41;5096092;28;20075;-64
2024/03/31 02:37:18;;;;;;;8.98;6.32;;;;;;;4.80;95.24;98859.47;5063193;28;20415;-64
2024/03/31 02:39:44;;;;;;;14.60;9.32;;;;;;;4.75;95.00;98860.88;5095305;28;20044;-64
2024/03/31 02:42:10;;;;;;;13.10;8.35;;;;;;;4.72;95.71;98858.69;5079373;28;20039;-66
2024/03/31 02:44:37;;;;;;;13.05;9.15;;;;;;;4.71;95.35;98857.06;5095623;28;20564;-65
2024/03/31 02:47:03;;;;;;;13.18;9.00;;;;;;;4.72;95.67;98868.38;5113784;28;20059;-64
2024/03/31 02:49:29;;;;;;;14.82;9.55;;;;;;;4.71;95.88;98864.94;5096066;28;20414;-64
2024/03/31 02:51:55;;;;;;;15.13;9.55;;;;;;;4.66;96.24;98862.16;5079033;28;20039;-65
2024/03/31 02:54:21;;;;;;;13.05;9.55;;;;;;;4.65;96.00;98872.88;5113964;28;20397;-65
2024/03/31 02:56:47;;;;;;;13.35;9.00;;;;;;;4.62;96.56;98874.09;5114242;28;20050;-64
2024/03/31 02:59:13;;;;;;;13.55;9.52;;;;;;;4.61;97.19;98880.34;5078265;28;20040;-64
2024/03/31 03:01:39;;;;;;;13.55;8.25;;;;;;;4.63;96.78;98888.03;5094944;28;20035;-66
2024/03/31 03:04:05;;;;;;;12.70;8.25;;;;;;;4.61;97.16;98874.31;5095166;28;20042;-64
2024/03/31 03:06:31;;;;;;;12.73;8.35;;;;;;;4.63;96.89;98878.31;5095352;28;20048;-64
2024/03/31 03:08:57;;;;;;;15.55;10.10;;;;;;;4.69;97.32;98887.19;5095225;28;20464;-65
2024/03/31 03:11:22;;;;;;;19.85;10.95;;;;;;;4.71;97.30;98885.97;5078498;28;20070;-65
2024/03/31 03:13:48;;;;;;;16.08;10.82;;;;;;;4.84;97.20;98887.69;5113528;28;20047;-66
2024/03/31 03:16:19;;;;;;;14.85;10.02;;;;;;;4.90;97.03;98896.53;5078218;28;20416;-66
2024/03/31 03:18:45;;;;;;;12.10;9.20;;;;;;;4.98;95.80;98896.28;5095014;28;20040;-65
2024/03/31 03:21:11;;;;;;;13.00;9.10;;;;;;;5.11;95.24;98908.50;5113735;28;20551;-64
2024/03/31 03:23:37;;;;;;;12.43;8.18;;;;;;;5.25;94.38;98917.91;5095248;28;20035;-64
2024/03/31 03:26:03;;;;;;;13.00;9.32;;;;;;;5.40;94.50;98912.34;5094976;28;20485;-64
2024/03/31 03:28:29;;;;;;;10.63;7.55;;;;;;;5.56;93.31;98916.22;5095096;28;20031;-65
2024/03/31 03:30:56;;;;;;;12.02;8.80;;;;;;;5.75;92.27;98923.16;5078297;28;20044;-64
2024/03/31 03:33:24;;;;;;;9.43;7.18;;;;;;;5.88;91.41;98922.19;5078057;28;20036;-65
2024/03/31 03:35:54;;;;;;;10.38;8.25;;;;;;;6.01;90.08;98929.19;5077931;28;20047;-66
2024/03/31 03:38:20;;;;;;;9.80;6.70;;;;;;;6.17;88.68;98918.06;5095004;28;20044;-66
2024/03/31 03:40:50;;;;;;;;;;;;;;;6.37;87.38;98929.19;5095392;28;20044;-63
2024/03/31 03:43:16;;;;;;;12.73;7.53;;;;;;;6.55;86.58;98938.88;5111551;28;19926;-65
2024/03/31 03:45:46;;;;;;;20.52;12.25;;;;;;;6.72;85.23;98936.44;5084085;28;20567;-64
2024/03/31 03:48:12;;;;;;;44.72;27.58;;;;;;;6.86;84.33;98925.72;5054174;28;20040;-64
2024/03/31 03:50:38;;;;;;;28.15;18.00;;;;;;;7.11;83.44;98938.75;5070378;28;20379;-66
2024/03/31 03:53:05;;;;;;;22.00;14.02;;;;;;;7.29;82.41;98946.56;5072189;28;20091;-64
2024/03/31 03:55:33;;;;;;;12.85;9.23;;;;;;;7.40;81.16;98943.16;5054551;28;20044;-65
2024/03/31 03:57:59;;;;;;;17.88;11.45;;;;;;;7.61;80.33;98951.53;5070716;28;20047;-66
2024/03/31 04:00:25;;;;;;;14.60;9.60;;;;;;;7.82;79.08;98950.16;5054037;28;20044;-64
2024/03/31 04:02:51;;;;;;;12.07;9.57;;;;;;;8.02;78.52;98963.03;5071880;28;20052;-65
2024/03/31 04:05:18;;;;;;;11.88;9.18;;;;;;;8.19;76.69;98954.16;5070592;28;20049;-65
2024/03/31 04:07:48;;;;;;;10.63;8.20;;;;;;;8.37;76.17;98961.13;5050751;28;20051;-65
2024/03/31 04:10:15;;;;;;;9.23;7.90;;;;;;;8.56;75.61;98971.56;5050593;28;20045;-65
2024/03/31 04:12:41;;;;;;;10.82;7.57;;;;;;;8.70;74.56;98969.44;5049980;28;20048;-66
2024/03/31 04:15:07;;;;;;;11.77;8.52;;;;;;;8.82;73.56;98970.22;5050707;28;20056;-64
2024/03/31 04:17:34;;;;;;;11.23;8.18;;;;;;;8.92;72.40;98973.06;5051912;28;20045;-65
2024/03/31 04:20:02;;;;;;;11.13;7.47;;;;;;;8.96;72.02;98970.72;5070578;28;20475;-63
2024/03/31 04:22:30;;;;;;;13.45;8.02;;;;;;;8.94;72.35;98980.72;5070720;28;20119;-67
2024/03/31 04:24:57;;;;;;;12.50;8.02;;;;;;;8.91;72.87;98978.56;5053452;28;20040;-64
2024/03/31 04:27:22;;;;;;;9.50;7.95;;;;;;;8.92;72.65;98980.19;5069633;28;20070;-66
2024/03/31 04:29:48;;;;;;;10.52;7.50;;;;;;;8.90;72.26;98983.06;5069606;28;20044;-64
2024/03/31 04:32:15;;;;;;;10.88;7.47;;;;;;;8.92;72.62;98993.41;5069325;28;20032;-65
2024/03/31 04:34:41;;;;;;;12.40;8.00;;;;;;;8.93;72.26;98990.50;5087012;28;20455;-64
2024/03/31 04:37:06;;;;;;;10.90;7.72;;;;;;;8.92;71.76;99001.34;5069971;28;20044;-66
2024/03/31 04:39:32;;;;;;;11.73;7.85;;;;;;;8.86;71.86;99008.38;5053646;28;20078;-65
2024/03/31 04:41:59;;;;;;;11.82;8.35;;;;;;;8.80;73.05;99012.75;5071572;28;20055;-63
2024/03/31 04:44:25;;;;;;;10.82;8.35;;;;;;;8.77;72.41;99007.13;5036983;28;20040;-64
2024/03/31 04:46:51;;;;;;;9.60;7.32;;;;;;;8.69;72.77;99016.22;5069789;28;20564;-65
2024/03/31 04:49:18;;;;;;;10.27;7.68;;;;;;;8.64;73.11;99018.75;5069952;28;20386;-65
2024/03/31 04:51:50;;;;;;;12.10;8.45;;;;;;;8.55;73.55;99018.31;5070068;28;20044;-67
2024/03/31 04:54:19;;;;;;;11.55;8.35;;;;;;;8.48;73.64;99022.13;5052644;28;20040;-64
2024/03/31 04:56:48;;;;;;;10.98;8.73;;;;;;;8.35;74.35;99010.75;5071542;28;20094;-64
2024/03/31 04:59:17;;;;;;;11.38;9.32;;;;;;;8.34;75.05;99018.91;5037252;28;20033;-65
2024/03/31 05:01:43;;;;;;;15.57;9.23;;;;;;;8.27;74.82;99028.78;5069822;28;20044;-65
2024/03/31 05:04:10;;;;;;;12.80;9.07;;;;;;;8.26;74.93;99029.81;5071155;28;20513;-65
2024/03/31 05:06:36;;;;;;;11.95;9.65;;;;;;;8.24;74.89;99029.25;5074025;28;20055;-64
2024/03/31 05:09:03;;;;;;;13.68;10.05;;;;;;;8.24;75.28;99043.25;5074040;28;20041;-63
2024/03/31 05:11:29;;;;;;;13.95;10.15;;;;;;;8.25;75.63;99034.28;5090834;28;20041;-63
2024/03/31 05:13:55;;;;;;;14.45;10.32;;;;;;;8.17;75.91;99043.34;5074019;28;20221;-62
2024/03/31 05:16:21;;;;;;;11.77;9.77;;;;;;;8.17;75.90;99048.63;5073527;28;20348;-62
2024/03/31 05:18:51;;;;;;;12.10;9.35;;;;;;;8.17;76.41;99047.81;5072886;28;20041;-62
2024/03/31 05:21:17;;;;;;;13.23;9.70;;;;;;;8.13;76.23;99044.84;5056732;28;20040;-63
2024/03/31 05:23:45;;;;;;;14.45;10.27;;;;;;;8.20;76.38;99053.44;5073961;28;20515;-63
2024/03/31 05:26:14;;;;;;;15.43;11.20;;;;;;;8.26;76.02;99056.22;5073038;28;20094;-63
2024/03/31 05:28:42;;;;;;;13.43;10.43;;;;;;;8.30;75.88;99057.38;5056796;28;20576;-62
2024/03/31 05:31:08;;;;;;;15.00;12.38;;;;;;;8.32;76.19;99050.81;5073273;28;20067;-63
2024/03/31 05:33:49;;;;;;;14.38;11.10;;;;;;;8.26;76.29;99053.56;5071322;28;20028;-63
2024/03/31 05:36:15;;;;;;;15.18;9.50;;;;;;;8.32;76.48;99056.09;5073415;28;20044;-64
2024/03/31 05:38:41;;;;;;;14.57;9.65;;;;;;;8.38;75.89;99060.50;5073108;28;20421;-62
2024/03/31 05:41:14;;;;;;;11.65;8.77;;;;;;;8.49;75.39;99066.78;5073540;28;20101;-67
2024/03/31 05:43:40;;;;;;;13.50;9.20;;;;;;;8.59;75.89;99071.50;5073370;28;20036;-63
2024/03/31 05:46:07;;;;;;;12.77;9.07;;;;;;;8.66;74.94;99077.47;5093389;28;20074;-65
2024/03/31 05:48:33;;;;;;;14.82;9.93;;;;;;;8.74;75.06;99077.09;5096813;28;20042;-63
2024/03/31 05:50:59;;;;;;;14.07;9.13;;;;;;;8.81;74.96;99079.63;5114900;28;20043;-64
2024/03/31 05:53:26;;;;;;;14.75;10.35;;;;;;;8.86;74.71;99087.66;5079684;28;20407;-63
2024/03/31 05:55:52;;;;;;;14.15;10.40;;;;;;;8.88;74.45;99090.84;5095891;28;20455;-62
2024/03/31 05:58:18;;;;;;;15.13;10.73;;;;;;;8.89;74.76;99091.69;5096451;28;20036;-64
2024/03/31 06:00:44;;;;;;;17.92;11.95;;;;;;;8.92;74.91;99092.00;5114399;27;20093;-63
2024/03/31 06:03:12;;;;;;;15.05;11.07;;;;;;;8.95;74.03;99096.03;5094168;27;20121;-63
2024/03/31 06:05:38;;;;;;;18.73;11.45;;;;;;;8.92;74.50;99091.22;5096533;27;20126;-66
2024/03/31 06:08:06;;;;;;;9.98;8.10;;;;;;;8.89;74.26;99091.69;5094424;28;20138;-64
2024/03/31 06:10:31;;;;;;;13.60;8.93;;;;;;;8.90;74.80;99094.06;5093823;28;20544;-65
2024/03/31 06:12:58;;;;;;;14.52;8.77;;;;;;;8.98;74.44;99103.50;5094184;28;20039;-66
2024/03/31 06:15:24;;;;;;;12.90;10.10;;;;;;;9.02;73.97;99101.97;5076973;28;20085;-65
2024/03/31 06:17:50;;;;;;;11.85;8.80;;;;;;;9.08;73.68;99106.31;5094011;28;20036;-64
2024/03/31 06:20:15;;;;;;;14.80;9.68;;;;;;;9.18;73.49;99105.75;5112984;28;20114;-65
2024/03/31 06:22:42;;;;;;;14.60;9.45;;;;;;;9.21;73.74;99113.22;5078673;28;20050;-65
2024/03/31 06:25:09;;;;;;;11.63;9.68;;;;;;;9.25;73.28;99111.69;5113736;28;20043;-63
2024/03/31 06:27:38;;;;;;;14.65;10.02;;;;;;;9.28;72.83;99113.84;5092838;28;20027;-64
2024/03/31 06:30:05;;;;;;;15.05;11.02;;;;;;;9.32;73.21;99117.63;5095598;28;20039;-64
2024/03/31 06:32:33;;;;;;;17.20;12.40;;;;;;;9.44;72.13;99118.41;5112383;28;20046;-65
2024/03/31 06:35:02;;;;;;;14.90;11.55;;;;;;;9.50;72.67;99117.47;5095324;28;20040;-64
2024/03/31 06:37:31;;;;;;;;;;;;;;;9.64;71.89;99123.25;5079550;28;20035;-65
2024/03/31 06:40:00;;;;;;;13.57;10.45;;;;;;;9.69;71.67;99122.56;5092899;28;19928;-65
2024/03/31 06:42:32;;;;;;;14.00;11.02;;;;;;;9.76;71.24;99125.84;5128681;27;20488;-65
2024/03/31 06:44:58;;;;;;;14.52;10.32;;;;;;;9.82;71.35;99134.69;5118498;27;20048;-66
2024/03/31 06:47:25;;;;;;;26.52;11.27;;;;;;;9.83;71.01;99123.06;5095524;28;20118;-65
2024/03/31 06:49:51;;;;;;;15.73;11.50;;;;;;;9.86;71.48;99130.53;5095084;28;20043;-64
2024/03/31 06:52:17;;;;;;;14.02;10.00;;;;;;;9.92;71.15;99125.06;5110287;28;20436;-66
2024/03/31 06:54:43;;;;;;;16.98;10.93;;;;;;;9.95;70.86;99126.44;5112618;28;20039;-64
2024/03/31 06:57:09;;;;;;;13.52;10.10;;;;;;;10.02;70.54;99129.72;5113204;28;20519;-67
2024/03/31 06:59:35;;;;;;;18.55;12.02;;;;;;;10.01;70.21;99130.78;5113501;28;20063;-65
2024/03/31 07:02:01;;;;;;;16.10;10.32;;;;;;;10.07;70.19;99137.75;5094310;28;20040;-66
2024/03/31 07:04:26;;;;;;;13.82;9.60;;;;;;;10.13;70.23;99141.31;5074808;28;20059;-66
2024/03/31 07:06:52;;;;;;;11.73;8.88;;;;;;;10.12;69.50;99147.66;5078312;28;20099;-66
2024/03/31 07:09:19;;;;;;;13.32;8.75;;;;;;;10.14;70.01;99141.03;4989758;28;20164;-64
2024/03/31 07:11:44;;;;;;;12.95;8.43;;;;;;;10.20;69.58;99134.00;5077968;28;20521;-64
2024/03/31 07:14:11;;;;;;;12.32;8.50;;;;;;;10.24;69.02;99140.44;5094522;28;20047;-65
2024/03/31 07:16:39;;;;;;;10.55;7.97;;;;;;;10.35;68.37;99146.69;5095048;28;20035;-66
2024/03/31 07:19:05;;;;;;;13.00;8.20;;;;;;;10.41;68.87;99157.16;5094549;28;20396;-65
2024/03/31 07:21:32;;;;;;;14.65;10.52;;;;;;;10.51;67.99;99147.75;5094308;28;20126;-66
2024/03/31 07:23:58;;;;;;;14.50;9.20;;;;;;;10.42;68.57;99137.56;5112416;28;20556;-66
2024/03/31 07:26:24;;;;;;;24.00;16.85;;;;;;;10.63;67.58;99164.34;5068117;28;20044;-65
2024/03/31 07:28:50;;;;;;;9.95;7.50;;;;;;;10.68;67.10;99157.28;5112365;28;20042;-68
2024/03/31 07:31:16;;;;;;;12.15;7.82;;;;;;;10.67;66.92;99155.66;5091505;28;20040;-64
2024/03/31 07:33:42;;;;;;;8.70;7.40;;;;;;;10.66;66.04;99156.72;5093913;28;20040;-65
2024/03/31 07:36:08;;;;;;;13.10;8.82;;;;;;;10.66;66.62;99162.03;5111448;28;20101;-66
2024/03/31 07:38:33;;;;;;;13.75;9.48;;;;;;;10.67;66.10;99163.59;5112499;28;20092;-65
2024/03/31 07:40:59;;;;;;;15.50;8.38;;;;;;;10.72;66.58;99159.44;5112577;28;20050;-66
2024/03/31 07:43:26;;;;;;;9.70;7.30;;;;;;;10.73;65.34;99153.88;5112423;28;20566;-66
2024/03/31 07:45:51;;;;;;;10.20;7.15;;;;;;;10.79;64.81;99157.41;5111724;28;20647;-66
2024/03/31 07:48:19;;;;;;;15.15;9.57;;;;;;;10.83;65.11;99164.66;5112413;28;20114;-67
2024/03/31 07:50:46;;;;;;;14.30;10.15;;;;;;;10.93;66.69;99168.47;5112095;28;20051;-66
2024/03/31 07:53:11;;;;;;;12.68;8.95;;;;;;;10.94;65.52;99173.53;5112337;28;20213;-66
2024/03/31 07:55:37;;;;;;;11.57;7.45;;;;;;;11.03;64.81;99177.38;5077244;28;20434;-67
2024/03/31 07:58:03;;;;;;;7.95;6.38;;;;;;;11.09;63.80;99175.59;5111809;28;20065;-66
2024/03/31 08:00:29;;;;;;;9.15;4.70;;;;;;;11.14;62.29;99173.00;5112069;28;20046;-67
2024/03/31 08:02:54;;;;;;;5.78;3.78;;;;;;;11.12;61.78;99170.59;5093633;28;20040;-66
2024/03/31 08:05:20;;;;;;;7.80;5.50;;;;;;;11.14;62.39;99176.44;5070722;28;20504;-63
2024/03/31 08:07:46;;;;;;;8.07;5.30;;;;;;;11.14;62.74;99175.66;5111495;28;20448;-64
2024/03/31 08:10:12;;;;;;;9.80;7.13;;;;;;;11.23;62.91;99182.13;5111072;28;20048;-62
2024/03/31 08:12:37;;;;;;;8.18;6.35;;;;;;;11.26;63.16;99178.97;5111772;28;20036;-65
2024/03/31 08:15:03;;;;;;;8.02;6.53;;;;;;;11.38;63.30;99184.16;5108285;28;20039;-63
2024/03/31 08:17:31;;;;;;;9.73;6.72;;;;;;;11.44;62.69;99180.56;5111556;28;20040;-63
2024/03/31 08:19:56;;;;;;;11.43;6.80;;;;;;;11.47;62.63;99189.84;5111804;28;20040;-61
2024/03/31 08:22:22;;;;;;;11.35;7.18;;;;;;;11.46;62.73;99190.91;5111851;28;20027;-63
2024/03/31 08:24:49;;;;;;;11.52;6.85;;;;;;;11.49;62.48;99188.56;5110800;28;20126;-62
2024/03/31 08:27:17;;;;;;;7.63;5.93;;;;;;;11.56;62.41;99188.38;5111571;28;20579;-63
2024/03/31 08:29:44;;;;;;;10.07;6.63;;;;;;;11.62;62.17;99186.56;5108467;28;20504;-63
2024/03/31 08:32:10;;;;;;;10.07;6.55;;;;;;;11.65;62.34;99176.28;5111244;28;20079;-63
2024/03/31 08:34:36;;;;;;;8.18;5.57;;;;;;;11.68;61.46;99177.63;5093167;28;20035;-65
2024/03/31 08:37:01;;;;;;;7.95;5.60;;;;;;;11.72;61.25;99186.69;5110736;28;20201;-67
2024/03/31 08:39:27;;;;;;;17.10;11.25;;;;;;;11.77;61.26;99181.44;5111807;28;20040;-66
2024/03/31 08:42:03;;;;;;;10.50;6.90;;;;;;;11.80;59.99;99188.91;5093473;28;20430;-64
2024/03/31 08:44:29;;;;;;;9.82;5.38;;;;;;;11.81;60.26;99185.97;5076359;28;20039;-65
2024/03/31 08:46:55;;;;;;;8.63;4.65;;;;;;;11.84;60.46;99176.72;5092745;28;20113;-62
2024/03/31 08:49:22;;;;;;;7.10;4.90;;;;;;;11.88;60.27;99185.00;5090378;28;20054;-64
2024/03/31 08:51:49;;;;;;;7.72;5.28;;;;;;;11.95;59.89;99177.66;5111410;28;20416;-62
2024/03/31 08:54:14;;;;;;;6.68;4.50;;;;;;;11.94;59.74;99171.56;5111168;28;20458;-62
2024/03/31 08:56:41;;;;;;;9.05;4.82;;;;;;;12.00;59.65;99178.50;5092440;28;20031;-64
2024/03/31 08:59:07;;;;;;;6.43;4.47;;;;;;;12.00;59.37;99175.03;5093053;28;20067;-62
2024/03/31 09:01:34;;;;;;;5.50;4.65;;;;;;;12.00;59.58;99183.00;5092569;28;20500;-61
2024/03/31 09:03:59;;;;;;;4.95;4.28;;;;;;;12.04;59.44;99184.13;5111119;28;20040;-64
2024/03/31 09:06:25;;;;;;;6.78;4.13;;;;;;;12.04;59.15;99184.91;5110950;28;20561;-62
2024/03/31 09:08:55;;;;;;;5.47;4.03;;;;;;;12.09;58.68;99180.69;5092312;28;20031;-63
2024/03/31 09:11:21;;;;;;;7.38;4.03;;;;;;;12.12;57.50;99182.84;5093015;28;20148;-62
2024/03/31 09:13:47;;;;;;;5.63;3.55;;;;;;;12.23;57.03;99181.88;5073892;28;20154;-66
2024/03/31 09:16:13;;;;;;;4.43;3.53;;;;;;;12.27;56.57;99183.00;5076722;28;20044;-66
2024/03/31 09:18:39;;;;;;;5.75;3.33;;;;;;;12.34;56.12;99186.22;5092922;28;20055;-67
2024/03/31 09:21:04;;;;;;;3.67;3.15;;;;;;;12.37;55.99;99187.59;5093008;28;20044;-67
2024/03/31 09:23:30;;;;;;;6.70;3.80;;;;;;;12.41;55.47;99194.81;5093225;28;20044;-65
2024/03/31 09:25:56;;;;;;;4.38;3.20;;;;;;;12.48;55.63;99189.28;5093459;28;20082;-66
2024/03/31 09:28:23;;;;;;;4.80;3.30;;;;;;;12.51;54.54;99188.75;5092653;28;20475;-66
2024/03/31 09:30:52;;;;;;;3.85;2.90;;;;;;;12.56;54.97;99187.97;5112703;28;20061;-66
2024/03/31 09:33:18;;;;;;;5.07;3.90;;;;;;;12.61;54.55;99201.31;5111126;28;20049;-67
2024/03/31 09:35:45;;;;;;;5.38;3.15;;;;;;;12.73;54.05;99199.28;5092981;28;20067;-66
2024/03/31 09:38:11;;;;;;;5.00;3.22;;;;;;;12.78;53.56;99198.50;5093053;28;20040;-66
2024/03/31 09:40:38;;;;;;;4.03;3.40;;;;;;;12.85;53.82;99193.75;5093000;28;20039;-65
2024/03/31 09:43:03;;;;;;;4.30;3.30;;;;;;;12.92;53.59;99197.81;5075808;28;20131;-67
2024/03/31 09:45:29;;;;;;;5.78;3.40;;;;;;;12.94;53.41;99192.22;5091779;28;20181;-67
2024/03/31 09:47:56;;;;;;;5.20;3.85;;;;;;;12.99;53.39;99208.22;5091923;28;20035;-67
2024/03/31 09:50:51;;;;;;;8.63;5.38;;;;;;;13.05;52.90;99198.41;5095259;28;20322;-67
2024/03/31 09:53:19;;;;;;;5.28;3.80;;;;;;;13.11;52.31;99206.16;5091507;28;20492;-62
2024/03/31 09:55:46;;;;;;;4.68;3.63;;;;;;;13.13;51.86;99198.72;5114514;28;20040;-63
2024/03/31 09:58:13;;;;;;;5.35;3.60;;;;;;;13.19;52.04;99197.69;5095917;28;20408;-67
2024/03/31 10:00:40;;;;;;;6.07;3.70;;;;;;;13.21;50.98;99196.63;5114589;28;20059;-67
2024/03/31 10:03:14;;;;;;;8.77;4.35;;;;;;;13.27;51.49;99206.28;5096273;28;20082;-66
2024/03/31 10:05:40;;;;;;;4.72;3.72;;;;;;;13.32;50.91;99208.94;5080178;28;20042;-65
2024/03/31 10:08:08;;;;;;;4.82;3.42;;;;;;;13.37;50.22;99201.78;5078677;28;20397;-67
2024/03/31 10:10:37;;;;;;;6.10;3.00;;;;;;;13.45;50.26;99200.50;5112157;28;20127;-66
2024/03/31 10:13:04;;;;;;;3.95;2.92;;;;;;;13.50;49.71;99205.03;5094268;28;20048;-65
2024/03/31 10:15:32;;;;;;;4.72;3.20;;;;;;;13.53;49.76;99205.31;5113221;28;20137;-66
2024/03/31 10:17:59;;;;;;;5.18;3.83;;;;;;;13.56;50.65;99203.97;5114187;28;20055;-66
2024/03/31 10:20:26;;;;;;;5.40;3.95;;;;;;;13.61;50.79;99204.78;5096025;28;20125;-66
2024/03/31 10:22:55;;;;;;;12.18;4.22;;;;;;;13.71;50.92;99200.59;5113069;28;20035;-65
2024/03/31 10:25:27;;;;;;;5.03;3.58;;;;;;;13.70;50.23;99207.75;5096072;28;20071;-65
2024/03/31 10:27:56;;;;;;;5.40;3.75;;;;;;;13.73;50.60;99215.22;5096492;28;20051;-64
2024/03/31 10:30:24;;;;;;;6.60;3.15;;;;;;;13.81;49.61;99209.38;5091279;28;20050;-64
2024/03/31 10:32:49;;;;;;;5.20;3.38;;;;;;;13.86;49.20;99212.06;5093748;28;20077;-62
2024/03/31 10:35:15;;;;;;;21.25;12.43;;;;;;;13.93;48.79;99216.34;5111280;28;20075;-64
2024/03/31 10:37:41;;;;;;;4.53;3.05;;;;;;;13.95;48.72;99212.38;5093239;28;20137;-66
2024/03/31 10:40:07;;;;;;;4.43;2.85;;;;;;;13.97;47.77;99202.25;5076689;28;20048;-66
2024/03/31 10:42:34;;;;;;;3.97;2.58;;;;;;;13.95;47.78;99199.03;5111420;28;20088;-67
2024/03/31 10:45:01;;;;;;;6.22;2.95;;;;;;;13.98;47.66;99197.72;5111454;27;20100;-65
2024/03/31 10:47:28;;;;;;;6.68;3.00;;;;;;;13.93;47.30;99195.03;5129471;27;20067;-65
2024/03/31 10:50:03;;;;;;;4.80;2.35;;;;;;;13.89;46.23;99183.31;5113532;28;20116;-66
2024/03/31 10:52:36;;;;;;;5.03;3.22;;;;;;;13.91;45.66;99189.16;5095421;28;20075;-66
2024/03/31 10:55:01;;;;;;;3.15;1.95;;;;;;;13.93;45.17;99184.38;5094977;28;20073;-65
2024/03/31 10:57:36;;;;;;;4.75;2.25;;;;;;;13.96;45.12;99186.50;5113454;28;20047;-65
2024/03/31 11:00:05;;;;;;;3.10;2.42;;;;;;;13.93;44.83;99189.69;5094692;28;20051;-64
2024/03/31 11:02:33;;;;;;;4.97;2.53;;;;;;;13.94;45.04;99188.63;5112850;28;20035;-63
2024/03/31 11:05:00;;;;;;;4.95;2.78;;;;;;;13.96;44.97;99186.50;5094506;28;20044;-62
2024/03/31 11:07:27;;;;;;;2.65;2.10;;;;;;;13.99;44.08;99188.66;5113140;28;20474;-64
2024/03/31 11:09:53;;;;;;;2.42;2.15;;;;;;;13.97;44.29;99175.59;5112415;28;20067;-62
2024/03/31 11:12:20;;;;;;;3.58;2.28;;;;;;;13.95;44.34;99175.06;5112882;28;20040;-61
2024/03/31 11:14:46;;;;;;;3.10;2.03;;;;;;;13.96;43.91;99173.19;5103848;27;20028;-63
2024/03/31 11:17:12;;;;;;;4.45;2.40;;;;;;;13.96;44.24;99171.31;5094673;28;20523;-64
2024/03/31 11:19:38;;;;;;;5.63;3.20;;;;;;;13.89;44.97;99170.00;5094519;28;20035;-63
2024/03/31 11:22:05;;;;;;;8.27;6.25;;;;;;;13.92;45.06;99166.81;5112511;28;20108;-64
2024/03/31 11:24:32;;;;;;;7.07;2.40;;;;;;;13.97;44.46;99164.94;5112353;28;20066;-63
2024/03/31 11:26:59;;;;;;;4.35;2.92;;;;;;;14.01;44.66;99175.88;5097703;28;20138;-65
2024/03/31 11:29:25;;;;;;;4.38;2.50;;;;;;;14.03;44.80;99165.72;5094363;28;20087;-63
2024/03/31 11:31:52;;;;;;;5.35;3.40;;;;;;;13.99;44.64;99154.00;5119492;27;20520;-62